Time;durP1;ratioP1;P1;durP2;ratioP2;P2;SDS_P1;SDS_P2;PMS_P1;PMS_P2;Temp;Humidity;BMP_temperature;BMP_pressure;BME280_temperature;BME280_humidity;BME280_pressure;Samples;Min_cycle;Max_cycle;Signal;HPM_P1;HPM_P2
2022/08/31 00:05:23;;;;;;;3.50;2.10;;;26.80;72.10;;;;;;5040437;28;93676;-53
2022/08/31 00:07:51;;;;;;;5.20;2.83;;;26.80;71.40;;;;;;5041319;28;92073;-53
2022/08/31 00:10:26;;;;;;;2.33;1.93;;;26.80;71.30;;;;;;5040283;28;92534;-52
2022/08/31 00:13:00;;;;;;;4.20;2.27;;;26.90;71.50;;;;;;5040445;28;95192;-52
2022/08/31 00:15:31;;;;;;;3.07;2.20;;;26.80;71.50;;;;;;5040440;28;94766;-53
2022/08/31 00:17:59;;;;;;;4.13;1.83;;;26.80;71.40;;;;;;5040323;28;93444;-53
2022/08/31 00:20:27;;;;;;;3.97;2.17;;;26.80;71.40;;;;;;5039890;28;92994;-53
2022/08/31 00:23:02;;;;;;;3.00;2.17;;;26.80;71.30;;;;;;5039188;28;94202;-53
2022/08/31 00:25:30;;;;;;;2.57;1.60;;;26.80;71.10;;;;;;5039899;28;93930;-52
2022/08/31 00:27:58;;;;;;;4.53;2.40;;;26.80;71.40;;;;;;5040296;28;92634;-53
2022/08/31 00:30:26;;;;;;;2.97;2.00;;;26.80;71.40;;;;;;5044046;27;91455;-53
2022/08/31 00:32:55;;;;;;;2.93;1.60;;;26.80;71.40;;;;;;5039772;28;94328;-53
2022/08/31 00:35:25;;;;;;;2.50;1.77;;;26.80;71.40;;;;;;5040914;28;94041;-53
2022/08/31 00:37:53;;;;;;;2.77;1.53;;;26.80;71.40;;;;;;5039797;28;93091;-53
2022/08/31 00:40:21;;;;;;;3.10;1.40;;;26.80;71.40;;;;;;5039330;28;92056;-52
2022/08/31 00:42:50;;;;;;;3.17;2.17;;;26.80;71.40;;;;;;5040440;28;94190;-52
2022/08/31 00:45:18;;;;;;;2.43;1.80;;;26.80;71.60;;;;;;5039565;28;94032;-52
2022/08/31 00:47:46;;;;;;;2.97;1.90;;;26.80;71.50;;;;;;5044097;27;92334;-52
2022/08/31 00:50:16;;;;;;;4.03;1.70;;;26.80;71.50;;;;;;5040438;28;92089;-53
2022/08/31 00:52:47;;;;;;;2.43;1.80;;;26.80;71.40;;;;;;5039589;28;94188;-52
2022/08/31 00:55:17;;;;;;;3.43;2.30;;;26.80;71.40;;;;;;5039451;28;94084;-52
2022/08/31 00:57:46;;;;;;;2.57;1.50;;;26.80;71.40;;;;;;5039538;28;93947;-52
2022/08/31 01:00:15;;;;;;;4.27;1.60;;;26.80;71.40;;;;;;5039844;28;92218;-52
2022/08/31 01:02:43;;;;;;;3.60;1.60;;;26.80;71.40;;;;;;5038560;28;95146;-52
2022/08/31 01:05:12;;;;;;;1.77;1.43;;;26.80;71.70;;;;;;5040035;28;94909;-53
2022/08/31 01:07:41;;;;;;;1.80;1.23;;;26.80;71.60;;;;;;5036145;27;92843;-53
2022/08/31 01:10:09;;;;;;;2.50;1.83;;;26.80;71.70;;;;;;5040598;28;92036;-53
2022/08/31 01:12:37;;;;;;;2.43;1.70;;;26.70;71.70;;;;;;5039163;28;94182;-53
2022/08/31 01:15:07;;;;;;;2.17;1.20;;;26.80;71.70;;;;;;5040789;28;93903;-53
2022/08/31 01:17:35;;;;;;;1.63;1.43;;;26.70;71.30;;;;;;5039056;27;93533;-53
2022/08/31 01:20:07;;;;;;;3.47;1.87;;;26.70;71.40;;;;;;5040405;28;91848;-53
2022/08/31 01:22:37;;;;;;;3.13;1.23;;;26.70;71.30;;;;;;5039653;28;92948;-53
2022/08/31 01:25:07;;;;;;;2.10;1.23;;;26.80;71.50;;;;;;5039523;28;93298;-53
2022/08/31 01:27:35;;;;;;;2.17;1.30;;;26.80;71.70;;;;;;5040185;28;92977;-53
2022/08/31 01:30:05;;;;;;;1.77;1.00;;;26.80;71.70;;;;;;5038491;28;92136;-53
2022/08/31 01:32:33;;;;;;;2.37;1.23;;;26.80;71.40;;;;;;5039703;28;94119;-53
2022/08/31 01:35:01;;;;;;;1.80;0.90;;;26.80;71.70;;;;;;5039926;28;93889;-53
2022/08/31 01:37:29;;;;;;;1.57;1.47;;;26.80;71.70;;;;;;5039416;27;94099;-53
2022/08/31 01:39:57;;;;;;;0.83;0.83;;;26.70;71.60;;;;;;5039124;28;92367;-52
2022/08/31 01:42:26;;;;;;;1.60;0.90;;;26.70;71.70;;;;;;5039734;28;94016;-53
2022/08/31 01:45:01;;;;;;;1.13;0.83;;;26.70;71.70;;;;;;5047196;27;92704;-53
2022/08/31 01:47:29;;;;;;;1.97;0.90;;;26.70;71.60;;;;;;5040516;27;92013;-53
2022/08/31 01:49:57;;;;;;;1.10;1.00;;;26.70;71.70;;;;;;5039213;27;91985;-53
2022/08/31 01:52:26;;;;;;;1.23;0.97;;;26.70;71.70;;;;;;5042064;27;95135;-52
2022/08/31 01:54:54;;;;;;;1.70;0.60;;;26.70;71.70;;;;;;5040368;27;93498;-53
2022/08/31 01:57:22;;;;;;;1.40;0.90;;;26.70;71.70;;;;;;5044858;27;92141;-53
2022/08/31 02:00:02;;;;;;;1.00;0.80;;;26.70;71.70;;;;;;5038977;27;92267;-52
2022/08/31 02:02:30;;;;;;;1.10;0.80;;;26.70;71.70;;;;;;5056322;27;94297;-53
2022/08/31 02:04:59;;;;;;;1.83;1.10;;;26.70;71.70;;;;;;5052280;27;93855;-53
2022/08/31 02:07:26;;;;;;;1.47;1.10;;;26.70;71.80;;;;;;5054261;27;93973;-53
2022/08/31 02:09:54;;;;;;;1.10;0.80;;;26.70;71.80;;;;;;5039597;27;91334;-53
2022/08/31 02:12:23;;;;;;;1.13;0.80;;;26.70;71.80;;;;;;5041517;27;94146;-52
2022/08/31 02:14:51;;;;;;;0.93;0.80;;;26.60;71.70;;;;;;5037357;27;93934;-53
2022/08/31 02:17:20;;;;;;;1.13;0.70;;;26.70;71.90;;;;;;5038874;28;93168;-53
2022/08/31 02:19:48;;;;;;;1.27;0.83;;;26.70;71.90;;;;;;5038198;27;92242;-53
2022/08/31 02:22:16;;;;;;;1.30;0.80;;;26.60;72.80;;;;;;5038297;27;94193;-53
2022/08/31 02:24:44;;;;;;;0.80;0.80;;;26.60;71.70;;;;;;5018407;28;93804;-53
2022/08/31 02:27:12;;;;;;;0.50;0.50;;;26.70;71.90;;;;;;5039434;27;93461;-53
2022/08/31 02:29:40;;;;;;;1.17;0.57;;;26.60;71.80;;;;;;5039481;27;91957;-53
2022/08/31 02:32:09;;;;;;;0.90;0.70;;;26.70;71.70;;;;;;5039073;27;93125;-53
2022/08/31 02:34:48;;;;;;;0.60;0.60;;;26.60;71.60;;;;;;5040591;27;93154;-53
2022/08/31 02:37:16;;;;;;;0.87;0.70;;;26.70;71.80;;;;;;5032419;27;92512;-53
2022/08/31 02:39:47;;;;;;;1.00;0.70;;;26.60;72.50;;;;;;5035732;27;92183;-53
2022/08/31 02:42:17;;;;;;;0.70;0.67;;;26.60;71.70;;;;;;5039180;27;94571;-53
2022/08/31 02:44:45;;;;;;;1.13;0.57;;;26.60;71.60;;;;;;5030221;27;94673;-53
2022/08/31 02:47:13;;;;;;;1.07;0.70;;;26.60;71.70;;;;;;5029412;28;92246;-53
2022/08/31 02:49:41;;;;;;;1.40;1.07;;;26.60;71.70;;;;;;5035547;28;92188;-53
2022/08/31 02:52:10;;;;;;;1.20;0.63;;;26.60;71.70;;;;;;5038198;28;94180;-53
2022/08/31 02:54:38;;;;;;;0.87;0.60;;;26.60;71.80;;;;;;5037292;28;93898;-53
2022/08/31 02:57:06;;;;;;;0.40;0.40;;;26.60;71.80;;;;;;5038532;27;92067;-53
2022/08/31 02:59:34;;;;;;;0.90;0.50;;;26.60;71.80;;;;;;5038957;28;91287;-53
2022/08/31 03:02:02;;;;;;;0.70;0.57;;;26.60;71.80;;;;;;5036503;28;94143;-53
2022/08/31 03:04:31;;;;;;;0.50;0.50;;;26.60;71.80;;;;;;5038915;28;93763;-53
2022/08/31 03:06:59;;;;;;;0.60;0.60;;;26.60;71.90;;;;;;5037403;28;93123;-52
2022/08/31 03:09:28;;;;;;;1.03;0.67;;;26.60;71.80;;;;;;5037177;28;92197;-53
2022/08/31 03:11:56;;;;;;;0.87;0.60;;;26.60;72.00;;;;;;5037043;28;92197;-53
2022/08/31 03:14:25;;;;;;;0.80;0.53;;;26.60;71.90;;;;;;5036888;27;93870;-53
2022/08/31 03:16:54;;;;;;;0.60;0.50;;;26.60;71.80;;;;;;5038232;28;91990;-53
2022/08/31 03:19:22;;;;;;;0.57;0.57;;;26.60;71.80;;;;;;5038605;28;91908;-52
2022/08/31 03:21:50;;;;;;;0.80;0.63;;;26.60;71.90;;;;;;5036844;28;93032;-53
2022/08/31 03:24:23;;;;;;;0.70;0.40;;;26.50;71.90;;;;;;5037663;27;93798;-53
2022/08/31 03:26:55;;;;;;;0.73;0.73;;;26.50;71.90;;;;;;5041341;28;91774;-53
2022/08/31 03:29:23;;;;;;;0.63;0.63;;;26.60;71.90;;;;;;5040953;28;92057;-53
2022/08/31 03:31:51;;;;;;;2.97;0.70;;;26.60;71.90;;;;;;5043403;27;95273;-53
2022/08/31 03:34:19;;;;;;;0.60;0.60;;;26.50;71.80;;;;;;5040867;28;94705;-53
2022/08/31 03:36:47;;;;;;;2.83;0.90;;;26.50;71.80;;;;;;5041642;27;92046;-53
2022/08/31 03:39:16;;;;;;;2.10;1.30;;;26.40;71.90;;;;;;5041520;28;91956;-53
2022/08/31 03:41:44;;;;;;;1.50;1.27;;;26.50;71.80;;;;;;5041020;27;94285;-53
2022/08/31 03:44:13;;;;;;;2.50;1.40;;;26.60;72.00;;;;;;5045483;27;93902;-53
2022/08/31 03:46:44;;;;;;;2.43;1.50;;;26.50;71.80;;;;;;5050973;27;92211;-53
2022/08/31 03:49:12;;;;;;;2.83;2.50;;;26.50;71.80;;;;;;5047711;27;91193;-53
2022/08/31 03:51:40;;;;;;;4.93;2.70;;;26.50;71.60;;;;;;5056753;27;94237;-53
2022/08/31 03:54:08;;;;;;;4.10;2.27;;;26.50;71.80;;;;;;5058650;27;93981;-53
2022/08/31 03:56:36;;;;;;;2.33;1.83;;;26.50;71.80;;;;;;5046882;27;92953;-53
2022/08/31 03:59:05;;;;;;;4.73;2.53;;;26.50;71.80;;;;;;5061762;27;91981;-53
2022/08/31 04:01:35;;;;;;;3.47;2.67;;;26.50;71.80;;;;;;5052320;27;94313;-53
2022/08/31 04:04:03;;;;;;;5.30;2.80;;;26.50;71.90;;;;;;5041459;28;93917;-53
2022/08/31 04:06:31;;;;;;;3.13;2.27;;;26.50;71.70;;;;;;5053497;27;92203;-53
2022/08/31 04:08:59;;;;;;;4.93;3.90;;;26.50;71.80;;;;;;5060837;27;92019;-53
2022/08/31 04:11:27;;;;;;;5.17;3.80;;;26.50;71.80;;;;;;5060732;27;94098;-52
2022/08/31 04:14:12;;;;;;;4.40;3.13;;;26.50;71.80;;;;;;5061362;27;93937;-53
2022/08/31 04:16:43;;;;;;;4.83;3.33;;;26.50;71.80;;;;;;5060640;27;92067;-53
2022/08/31 04:19:14;;;;;;;4.40;3.50;;;26.50;71.90;;;;;;5060526;27;91995;-53
2022/08/31 04:21:43;;;;;;;5.07;3.70;;;26.40;71.80;;;;;;5060379;27;95155;-53
2022/08/31 04:24:11;;;;;;;7.93;4.47;;;26.50;71.60;;;;;;5057171;27;94853;-53
2022/08/31 04:26:40;;;;;;;9.03;4.60;;;26.50;71.80;;;;;;5055200;27;92087;-53
2022/08/31 04:29:08;;;;;;;5.00;3.73;;;26.40;71.60;;;;;;5042396;27;92024;-53
2022/08/31 04:31:40;;;;;;;5.00;4.10;;;26.40;71.80;;;;;;5060690;27;94201;-53
2022/08/31 04:34:10;;;;;;;4.97;4.30;;;26.40;71.80;;;;;;5058972;27;93819;-53
2022/08/31 04:36:38;;;;;;;6.93;4.13;;;26.40;71.80;;;;;;5040628;27;92053;-53
2022/08/31 04:39:06;;;;;;;7.30;4.23;;;26.60;71.90;;;;;;5041182;27;91403;-53
2022/08/31 04:41:35;;;;;;;8.67;4.53;;;26.40;71.80;;;;;;5054798;27;94116;-52
2022/08/31 04:44:04;;;;;;;5.90;4.40;;;26.40;71.70;;;;;;5039099;27;93843;-52
2022/08/31 04:46:32;;;;;;;6.93;4.63;;;26.40;71.50;;;;;;5039635;27;93160;-52
2022/08/31 04:49:00;;;;;;;12.20;5.53;;;26.40;71.80;;;;;;5040858;28;91901;-52
2022/08/31 04:51:30;;;;;;;8.50;5.20;;;26.40;71.80;;;;;;5039953;28;94239;-52
2022/08/31 04:53:58;;;;;;;5.97;4.63;;;26.40;71.70;;;;;;5040217;28;94284;-52
2022/08/31 04:56:28;;;;;;;10.07;5.37;;;26.40;71.80;;;;;;5039873;28;92736;-53
2022/08/31 04:58:57;;;;;;;7.73;5.40;;;26.30;71.60;;;;;;5039667;27;92093;-52
2022/08/31 05:01:26;;;;;;;9.87;5.93;;;26.40;71.80;;;;;;5039724;28;94230;-53
2022/08/31 05:04:03;;;;;;;7.47;5.27;;;26.40;71.70;;;;;;5041197;28;93903;-52
2022/08/31 05:06:33;;;;;;;7.63;4.77;;;26.40;71.70;;;;;;5039420;28;93547;-53
2022/08/31 05:09:03;;;;;;;6.83;5.20;;;26.40;71.60;;;;;;5039207;28;91904;-52
2022/08/31 05:11:31;;;;;;;9.03;5.77;;;26.40;71.70;;;;;;5037852;28;94999;-52
2022/08/31 05:14:00;;;;;;;5.33;3.70;;;26.40;71.90;;;;;;5039213;28;94883;-52
2022/08/31 05:16:29;;;;;;;4.43;2.67;;;26.40;71.50;;;;;;5037263;28;92110;-53
2022/08/31 05:18:57;;;;;;;5.80;2.77;;;26.40;71.50;;;;;;5040553;28;91937;-53
2022/08/31 05:21:27;;;;;;;2.30;2.10;;;26.30;71.60;;;;;;5039504;28;94275;-52
2022/08/31 05:23:58;;;;;;;3.17;2.10;;;26.30;71.40;;;;;;5035583;28;92727;-53
2022/08/31 05:26:28;;;;;;;2.03;1.60;;;26.30;72.20;;;;;;5039292;28;93729;-52
2022/08/31 05:28:56;;;;;;;1.67;1.57;;;26.20;71.10;;;;;;5040467;28;91369;-51
2022/08/31 05:31:26;;;;;;;2.17;1.50;;;26.20;71.40;;;;;;5038457;28;94188;-50
2022/08/31 05:33:55;;;;;;;2.27;1.53;;;26.20;71.30;;;;;;5038253;27;93874;-49
2022/08/31 05:36:23;;;;;;;4.63;0.90;;;26.20;71.10;;;;;;5037156;27;93279;-49
2022/08/31 05:38:52;;;;;;;1.17;0.77;;;26.20;71.10;;;;;;5040131;28;92217;-49
2022/08/31 05:41:29;;;;;;;1.43;1.03;;;26.10;70.90;;;;;;5034731;28;94295;-49
2022/08/31 05:43:57;;;;;;;0.70;0.70;;;26.20;71.60;;;;;;5024477;27;93933;-49
2022/08/31 05:46:26;;;;;;;0.83;0.50;;;26.20;70.60;;;;;;5039022;28;93606;-49
2022/08/31 05:48:54;;;;;;;1.60;1.00;;;26.20;70.50;;;;;;5039084;27;91909;-52
2022/08/31 05:51:23;;;;;;;0.57;0.53;;;26.30;70.50;;;;;;5038402;28;93237;-50
2022/08/31 05:53:51;;;;;;;0.70;0.70;;;26.30;70.30;;;;;;5032753;27;93468;-51
2022/08/31 05:56:22;;;;;;;0.53;0.53;;;26.30;70.20;;;;;;5048246;27;92100;-51
2022/08/31 05:58:51;;;;;;;2.57;0.60;;;26.40;70.00;;;;;;5044122;27;92212;-51
2022/08/31 06:01:20;;;;;;;0.97;0.77;;;26.30;69.90;;;;;;5041475;27;95169;-51
2022/08/31 06:03:49;;;;;;;0.60;0.50;;;26.30;69.40;;;;;;5044097;27;94597;-51
2022/08/31 06:06:17;;;;;;;0.67;0.60;;;26.40;69.60;;;;;;5040390;27;92237;-51
2022/08/31 06:08:45;;;;;;;1.60;0.60;;;26.40;69.40;;;;;;5043237;27;92046;-50
2022/08/31 06:11:16;;;;;;;1.50;1.00;;;26.40;69.30;;;;;;5044049;27;96312;-50
2022/08/31 06:13:44;;;;;;;1.20;0.70;;;26.40;68.80;;;;;;5039214;27;93992;-50
2022/08/31 06:16:16;;;;;;;0.87;0.87;;;26.50;68.90;;;;;;5040364;27;92105;-50
2022/08/31 06:18:49;;;;;;;1.80;0.87;;;26.40;68.90;;;;;;5039376;27;91367;-50
2022/08/31 06:21:19;;;;;;;0.73;0.63;;;26.40;68.50;;;;;;5044590;27;94082;-50
2022/08/31 06:23:48;;;;;;;1.93;0.60;;;26.40;68.20;;;;;;5043825;27;93728;-50
2022/08/31 06:26:18;;;;;;;1.03;0.40;;;26.40;68.10;;;;;;5043874;27;93025;-50
2022/08/31 06:28:47;;;;;;;0.70;0.57;;;26.30;68.00;;;;;;5044298;27;92103;-50
2022/08/31 06:31:18;;;;;;;0.83;0.77;;;26.30;67.80;;;;;;5047476;27;94189;-50
2022/08/31 06:33:47;;;;;;;1.37;0.67;;;26.30;67.80;;;;;;5041181;27;94265;-50
2022/08/31 06:36:16;;;;;;;1.27;0.63;;;26.30;67.80;;;;;;5042989;27;92163;-52
2022/08/31 06:38:44;;;;;;;0.97;0.50;;;26.30;67.60;;;;;;5038441;27;92099;-51
2022/08/31 06:41:13;;;;;;;0.67;0.50;;;26.30;67.90;;;;;;5046412;27;94168;-50
2022/08/31 06:43:42;;;;;;;1.13;0.53;;;26.30;67.50;;;;;;5046330;27;92463;-50
2022/08/31 06:46:10;;;;;;;0.93;0.63;;;26.30;67.60;;;;;;5047752;27;93130;-50
2022/08/31 06:48:41;;;;;;;0.97;0.60;;;26.30;67.40;;;;;;5048461;27;92182;-51
2022/08/31 06:51:10;;;;;;;0.50;0.50;;;26.30;67.20;;;;;;5044628;27;94737;-50
2022/08/31 06:53:41;;;;;;;0.50;0.40;;;26.30;67.10;;;;;;5049755;27;94941;-50
2022/08/31 06:56:11;;;;;;;0.50;0.30;;;26.30;67.10;;;;;;5040690;27;91951;-51
2022/08/31 06:58:47;;;;;;;2.43;0.77;;;26.20;66.90;;;;;;5040934;27;92036;-50
2022/08/31 07:01:22;;;;;;;0.83;0.60;;;26.20;66.90;;;;;;5047846;27;94096;-51
2022/08/31 07:04:08;;;;;;;0.70;0.63;;;26.20;66.90;;;;;;5043002;27;93766;-51
2022/08/31 07:06:40;;;;;;;0.20;0.20;;;26.20;66.70;;;;;;5048846;27;93868;-51
2022/08/31 07:09:09;;;;;;;0.73;0.43;;;26.20;66.70;;;;;;5059143;27;91282;-51
2022/08/31 07:11:39;;;;;;;1.23;0.90;;;26.20;66.70;;;;;;5056787;27;94150;-50
2022/08/31 07:14:13;;;;;;;0.93;0.60;;;26.20;66.70;;;;;;5058093;27;93909;-50
2022/08/31 07:16:41;;;;;;;2.80;0.87;;;26.30;66.80;;;;;;5037508;27;95084;-50
2022/08/31 07:19:10;;;;;;;0.70;0.70;;;26.20;66.90;;;;;;5036516;28;92093;-51
2022/08/31 07:21:40;;;;;;;0.93;0.53;;;26.20;66.80;;;;;;5038091;28;94068;-50
2022/08/31 07:24:09;;;;;;;1.20;0.60;;;26.30;66.70;;;;;;5038011;28;93882;-50
2022/08/31 07:26:38;;;;;;;0.93;0.70;;;26.20;66.60;;;;;;5038208;28;91924;-51
2022/08/31 07:29:06;;;;;;;0.57;0.30;;;26.30;66.60;;;;;;5038404;28;92004;-51
2022/08/31 07:31:41;;;;;;;1.00;0.40;;;26.20;66.70;;;;;;5037717;28;94232;-50
2022/08/31 07:34:10;;;;;;;1.17;0.53;;;26.00;66.40;;;;;;5038362;28;93984;-51
2022/08/31 07:42:09;;;;;;;0.60;0.33;;;26.10;66.50;;;;;;5036873;28;95140;-50
2022/08/31 07:44:38;;;;;;;0.80;0.80;;;26.10;66.60;;;;;;5044254;27;94881;-51
2022/08/31 07:47:10;;;;;;;0.77;0.40;;;26.10;66.70;;;;;;5044477;27;93146;-51
2022/08/31 07:49:46;;;;;;;0.40;0.40;;;26.10;66.70;;;;;;5039327;27;92124;-51
2022/08/31 07:52:20;;;;;;;2.67;0.40;;;26.00;66.70;;;;;;5037823;28;94319;-51
2022/08/31 07:54:48;;;;;;;0.47;0.47;;;26.00;66.70;;;;;;5038025;28;93945;-51
2022/08/31 07:57:17;;;;;;;0.77;0.43;;;26.00;66.70;;;;;;5037909;28;92086;-52
2022/08/31 07:59:47;;;;;;;1.43;0.60;;;26.00;66.70;;;;;;5038240;28;91362;-52
2022/08/31 08:02:16;;;;;;;1.10;0.87;;;26.00;66.70;;;;;;5036479;28;94163;-52
2022/08/31 08:04:49;;;;;;;1.30;0.50;;;26.00;66.90;;;;;;5036667;28;94353;-53
2022/08/31 08:07:17;;;;;;;0.80;0.70;;;26.00;67.00;;;;;;5035937;28;94207;-53
2022/08/31 08:09:48;;;;;;;0.83;0.63;;;25.90;66.90;;;;;;5037555;28;92118;-52
2022/08/31 08:12:19;;;;;;;1.77;0.90;;;25.90;67.10;;;;;;5040299;27;94128;-53
2022/08/31 08:14:50;;;;;;;0.70;0.70;;;25.90;67.80;;;;;;5041525;28;93762;-54
2022/08/31 08:17:18;;;;;;;0.80;0.57;;;25.90;68.00;;;;;;5041864;28;93031;-52
2022/08/31 08:19:48;;;;;;;1.83;0.80;;;26.00;67.40;;;;;;5041027;28;92088;-52
2022/08/31 08:22:16;;;;;;;0.67;0.60;;;26.00;67.50;;;;;;5040670;28;94216;-52
2022/08/31 08:25:05;;;;;;;0.77;0.53;;;26.00;67.50;;;;;;5041739;27;95116;-53
2022/08/31 08:27:34;;;;;;;0.50;0.50;;;26.00;67.20;;;;;;5041149;27;92126;-53
2022/08/31 08:30:02;;;;;;;0.80;0.60;;;26.00;67.50;;;;;;5040967;28;91933;-52
2022/08/31 08:32:30;;;;;;;0.67;0.50;;;26.00;67.60;;;;;;5039778;28;95104;-53
2022/08/31 08:35:00;;;;;;;0.77;0.40;;;26.00;67.60;;;;;;5040844;28;93639;-53
2022/08/31 08:37:28;;;;;;;1.00;0.80;;;26.00;67.70;;;;;;5040431;28;91987;-52
2022/08/31 08:40:27;;;;;;;1.20;0.60;;;26.00;67.70;;;;;;5041531;28;92080;-53
2022/08/31 08:42:55;;;;;;;0.83;0.57;;;25.90;67.80;;;;;;5041094;28;94202;-53
2022/08/31 08:45:24;;;;;;;0.60;0.30;;;26.00;67.70;;;;;;5040189;28;93738;-53
2022/08/31 08:47:55;;;;;;;0.53;0.53;;;26.00;67.40;;;;;;5041057;28;92054;-53
2022/08/31 08:50:28;;;;;;;0.80;0.47;;;25.90;67.60;;;;;;5041015;28;91258;-53
2022/08/31 08:52:56;;;;;;;1.27;0.40;;;26.00;67.80;;;;;;5040813;28;94249;-53
2022/08/31 08:55:29;;;;;;;0.53;0.53;;;26.00;67.60;;;;;;5040451;28;93777;-53
2022/08/31 08:57:58;;;;;;;0.73;0.53;;;26.00;67.50;;;;;;5040113;28;93441;-53
2022/08/31 09:00:27;;;;;;;0.43;0.43;;;25.90;67.60;;;;;;5040463;28;92148;-54
2022/08/31 09:02:59;;;;;;;0.20;0.20;;;25.90;67.70;;;;;;5040251;28;94342;-53
2022/08/31 09:05:43;;;;;;;1.17;0.40;;;25.90;67.60;;;;;;5040200;28;93980;-53
2022/08/31 09:08:31;;;;;;;0.30;0.30;;;25.90;67.40;;;;;;5039719;28;92115;-53
2022/08/31 09:11:05;;;;;;;0.57;0.40;;;25.90;67.30;;;;;;5040049;28;92164;-53
2022/08/31 09:13:38;;;;;;;0.40;0.40;;;25.90;67.40;;;;;;5039942;28;94176;-53
2022/08/31 09:16:16;;;;;;;0.40;0.40;;;25.90;67.50;;;;;;5040118;28;93931;-53
2022/08/31 09:18:47;;;;;;;0.97;0.50;;;25.90;67.50;;;;;;5040551;28;91812;-53
2022/08/31 09:21:20;;;;;;;0.60;0.60;;;25.90;68.40;;;;;;5039281;28;91954;-54
2022/08/31 09:23:53;;;;;;;0.57;0.50;;;25.90;67.50;;;;;;5037918;28;94918;-54
2022/08/31 09:26:26;;;;;;;0.30;0.30;;;25.90;67.60;;;;;;5039123;28;93882;-54
2022/08/31 09:28:55;;;;;;;0.70;0.50;;;26.00;67.60;;;;;;5040107;28;92695;-51
2022/08/31 09:31:33;;;;;;;0.30;0.30;;;26.00;67.70;;;;;;5040011;28;92013;-54
2022/08/31 09:34:02;;;;;;;0.93;0.30;;;26.00;67.70;;;;;;5039997;28;94006;-53
2022/08/31 09:36:39;;;;;;;0.50;0.30;;;25.90;67.70;;;;;;5039936;28;94013;-52
2022/08/31 09:39:19;;;;;;;0.60;0.30;;;25.90;67.60;;;;;;5040241;28;92077;-52
2022/08/31 09:41:47;;;;;;;0.40;0.40;;;25.90;67.70;;;;;;5039911;28;91313;-52
2022/08/31 09:44:22;;;;;;;0.40;0.40;;;25.90;67.90;;;;;;5039541;28;94008;-52
2022/08/31 09:46:52;;;;;;;0.33;0.30;;;25.90;67.70;;;;;;5039806;28;93979;-52
2022/08/31 09:49:20;;;;;;;0.20;0.20;;;25.90;67.80;;;;;;5039594;28;93435;-52
2022/08/31 09:51:51;;;;;;;1.60;0.40;;;25.90;67.80;;;;;;5040278;28;92130;-52
2022/08/31 09:57:11;;;;;;;0.77;0.53;;;25.90;67.80;;;;;;5039696;28;92040;-52
2022/08/31 09:59:42;;;;;;;1.13;1.03;;;25.90;68.10;;;;;;5038814;28;92110;-52
2022/08/31 10:02:12;;;;;;;1.03;0.63;;;25.80;67.90;;;;;;5037449;28;92184;-52
2022/08/31 10:04:49;;;;;;;0.50;0.50;;;25.80;67.90;;;;;;5038348;28;92937;-52
2022/08/31 10:07:28;;;;;;;0.97;0.50;;;25.80;68.00;;;;;;5039283;28;93793;-52
2022/08/31 10:09:58;;;;;;;0.40;0.40;;;25.90;68.10;;;;;;5039893;28;92094;-52
2022/08/31 10:12:32;;;;;;;0.50;0.30;;;25.90;68.10;;;;;;5039490;28;92129;-52
2022/08/31 10:15:02;;;;;;;0.70;0.50;;;25.90;68.10;;;;;;5038923;28;95146;-52
2022/08/31 10:17:32;;;;;;;0.40;0.33;;;25.90;68.10;;;;;;5039272;28;94926;-52
2022/08/31 10:20:06;;;;;;;0.30;0.30;;;25.90;68.10;;;;;;5039389;28;92120;-52
2022/08/31 10:22:40;;;;;;;0.43;0.30;;;25.90;68.10;;;;;;5039198;28;92071;-52
2022/08/31 10:25:14;;;;;;;0.50;0.50;;;25.90;68.20;;;;;;5039096;28;94235;-54
2022/08/31 10:27:45;;;;;;;0.40;0.40;;;26.00;68.20;;;;;;5039176;28;93926;-54
2022/08/31 10:30:21;;;;;;;0.93;0.50;;;26.00;68.10;;;;;;5039581;28;92062;-53
2022/08/31 10:32:53;;;;;;;0.30;0.30;;;25.90;68.10;;;;;;5039739;28;91307;-53
2022/08/31 10:35:24;;;;;;;0.47;0.47;;;25.90;67.90;;;;;;5038050;28;94174;-53
2022/08/31 10:37:56;;;;;;;0.43;0.43;;;25.90;68.90;;;;;;5039244;28;93998;-54
2022/08/31 10:40:28;;;;;;;0.37;0.37;;;25.90;68.80;;;;;;5038791;28;93089;-54
2022/08/31 10:43:08;;;;;;;0.63;0.53;;;25.90;67.90;;;;;;5039529;28;91761;-53
2022/08/31 10:45:39;;;;;;;0.30;0.30;;;25.90;67.90;;;;;;5039131;28;94261;-53
2022/08/31 10:48:11;;;;;;;0.40;0.33;;;26.00;67.90;;;;;;5038665;28;93970;-53
2022/08/31 10:50:44;;;;;;;0.37;0.33;;;26.00;67.70;;;;;;5021803;28;92184;-53
2022/08/31 10:53:21;;;;;;;0.50;0.43;;;26.00;67.70;;;;;;5039209;28;92045;-53
2022/08/31 10:55:54;;;;;;;1.23;0.33;;;26.10;68.70;;;;;;5039316;28;92810;-53
2022/08/31 10:58:29;;;;;;;0.40;0.37;;;26.00;67.80;;;;;;5038920;28;93868;-53
2022/08/31 11:01:02;;;;;;;0.30;0.30;;;26.00;67.70;;;;;;5039200;28;92411;-53
2022/08/31 11:03:43;;;;;;;0.73;0.50;;;26.00;67.80;;;;;;5038959;28;92112;-53
2022/08/31 11:06:15;;;;;;;0.37;0.37;;;26.10;67.90;;;;;;5037600;28;95277;-53
2022/08/31 11:08:48;;;;;;;0.67;0.60;;;26.10;67.70;;;;;;5038887;28;94881;-53
2022/08/31 11:11:20;;;;;;;0.40;0.40;;;26.10;68.00;;;;;;5038933;28;91998;-53
2022/08/31 11:14:02;;;;;;;0.60;0.40;;;26.10;67.70;;;;;;5038978;28;91858;-53
2022/08/31 11:16:57;;;;;;;0.73;0.50;;;26.10;68.50;;;;;;5038664;28;94354;-53
2022/08/31 11:19:51;;;;;;;1.10;0.20;;;26.10;67.60;;;;;;5038759;28;93820;-53
2022/08/31 11:22:39;;;;;;;0.20;0.20;;;26.10;67.60;;;;;;5038531;28;92069;-53
2022/08/31 11:25:46;;;;;;;1.47;0.50;;;26.10;67.50;;;;;;5038830;28;91237;-53
2022/08/31 11:28:22;;;;;;;0.40;0.40;;;26.10;67.50;;;;;;5002163;28;94225;-53
2022/08/31 11:30:50;;;;;;;0.77;0.40;;;26.10;67.60;;;;;;5038671;28;93980;-53
2022/08/31 11:33:26;;;;;;;3.30;0.40;;;26.10;67.70;;;;;;5037116;28;93360;-53
2022/08/31 11:36:05;;;;;;;1.90;0.40;;;26.10;67.50;;;;;;5037518;28;92063;-53
2022/08/31 11:38:51;;;;;;;0.30;0.30;;;26.10;67.50;;;;;;5034230;28;94321;-53
2022/08/31 11:41:38;;;;;;;0.40;0.40;;;26.20;67.50;;;;;;5037873;28;94237;-53
2022/08/31 11:44:07;;;;;;;1.03;0.40;;;26.20;67.50;;;;;;5038460;28;92094;-53
2022/08/31 11:47:00;;;;;;;1.87;0.30;;;26.20;67.60;;;;;;5040497;28;92880;-58
2022/08/31 11:49:46;;;;;;;0.20;0.20;;;26.20;67.40;;;;;;5040716;27;94150;-54
2022/08/31 11:52:28;;;;;;;2.20;0.63;;;26.20;67.30;;;;;;5041362;28;93837;-54
2022/08/31 11:55:12;;;;;;;0.30;0.30;;;26.20;67.30;;;;;;5042341;28;92220;-54
2022/08/31 11:58:19;;;;;;;0.33;0.33;;;26.30;67.30;;;;;;5038568;28;92147;-53
2022/08/31 12:00:57;;;;;;;0.20;0.20;;;26.20;67.20;;;;;;4958481;28;95274;-53
2022/08/31 12:03:37;;;;;;;1.07;0.60;;;26.30;67.30;;;;;;5032709;27;94900;-52
2022/08/31 12:06:06;;;;;;;0.33;0.33;;;26.30;67.30;;;;;;5042240;28;92994;-53
2022/08/31 12:08:48;;;;;;;0.27;0.27;;;26.30;67.60;;;;;;5041606;28;92149;-52
2022/08/31 12:11:18;;;;;;;0.40;0.40;;;26.30;67.60;;;;;;5020485;28;94229;-52
2022/08/31 12:13:50;;;;;;;0.90;0.40;;;26.30;67.30;;;;;;5031798;28;93951;-52
2022/08/31 12:16:29;;;;;;;0.30;0.30;;;26.30;67.60;;;;;;5041586;28;92092;-52
2022/08/31 12:25:04;;;;;;;0.40;0.40;;;26.30;67.50;;;;;;5041071;28;93869;-52
2022/08/31 12:27:35;;;;;;;0.30;0.30;;;26.40;67.60;;;;;;5040842;28;92928;-54
2022/08/31 12:30:19;;;;;;;0.30;0.30;;;26.40;67.60;;;;;;5041160;28;92750;-54
2022/08/31 12:32:52;;;;;;;1.20;0.80;;;26.40;67.60;;;;;;5040724;27;94334;-56
2022/08/31 12:35:22;;;;;;;1.60;0.77;;;26.40;67.50;;;;;;5041289;28;93925;-56
2022/08/31 12:37:58;;;;;;;1.70;0.93;;;26.40;67.60;;;;;;5041306;28;91996;-53
2022/08/31 12:40:27;;;;;;;0.40;0.40;;;26.50;83.10;;;;;;5041165;28;92167;-49
2022/08/31 12:42:57;;;;;;;0.97;0.87;;;26.40;42.40;;;;;;5040741;28;94143;-48
2022/08/31 12:46:06;;;;;;;0.63;0.50;;;26.50;42.50;;;;;;5040987;28;94020;-53
2022/08/31 12:48:53;;;;;;;0.40;0.40;;;26.60;42.50;;;;;;5040802;28;93925;-53
2022/08/31 12:51:28;;;;;;;0.43;0.27;;;26.60;42.40;;;;;;5040669;28;91788;-53
2022/08/31 12:54:05;;;;;;;0.30;0.30;;;26.60;42.40;;;;;;5039660;28;95158;-52
2022/08/31 12:56:37;;;;;;;0.33;0.33;;;26.60;42.40;;;;;;5040857;27;94790;-52
2022/08/31 12:59:11;;;;;;;0.50;0.50;;;26.60;42.50;;;;;;5039311;28;92041;-51
2022/08/31 13:01:43;;;;;;;0.50;0.50;;;26.70;42.70;;;;;;5026855;28;92024;-55
2022/08/31 13:04:12;;;;;;;0.70;0.70;;;26.70;42.80;;;;;;5040032;28;94122;-57
2022/08/31 13:06:43;;;;;;;0.93;0.60;;;26.70;42.90;;;;;;5040575;28;93824;-54
2022/08/31 13:09:24;;;;;;;0.77;0.50;;;26.70;42.90;;;;;;5040746;28;91942;-53
2022/08/31 13:11:52;;;;;;;0.53;0.40;;;26.60;42.90;;;;;;5041276;28;91351;-53
2022/08/31 13:14:23;;;;;;;1.13;0.50;;;26.70;42.90;;;;;;5040204;28;94197;-53
2022/08/31 13:16:53;;;;;;;0.73;0.57;;;26.70;42.90;;;;;;5039030;28;94114;-53
2022/08/31 13:19:23;;;;;;;1.03;0.50;;;26.70;42.90;;;;;;5040246;28;93097;-55
2022/08/31 13:21:52;;;;;;;0.83;0.53;;;26.70;42.90;;;;;;5040350;28;92165;-55
2022/08/31 13:24:24;;;;;;;0.33;0.33;;;26.70;42.90;;;;;;5039986;28;94260;-55
2022/08/31 13:27:03;;;;;;;0.67;0.40;;;26.70;42.80;;;;;;5039504;27;93790;-55
2022/08/31 13:29:39;;;;;;;0.40;0.40;;;26.70;42.80;;;;;;5026981;28;91963;-55